Time;durP1;ratioP1;P1;durP2;ratioP2;P2;SDS_P1;SDS_P2;PMS_P1;PMS_P2;Temp;Humidity;BMP_temperature;BMP_pressure;BME280_temperature;BME280_humidity;BME280_pressure;Samples;Min_cycle;Max_cycle;Signal;HPM_P1;HPM_P2
2021/12/27 00:01:41;;;;;;;;;;;21.50;49.90;;;;;;6310196;27;20018;-43
2021/12/27 00:04:45;;;;;;;;;;;21.40;49.70;;;;;;6316178;27;19930;-44
2021/12/27 00:07:50;;;;;;;;;;;21.40;49.80;;;;;;6333373;27;19974;-44
2021/12/27 00:10:53;;;;;;;;;;;21.30;49.80;;;;;;6330104;27;19973;-42
2021/12/27 00:13:54;;;;;;;;;;;21.80;49.80;;;;;;6328713;27;20742;-42
2021/12/27 00:16:56;;;;;;;;;;;21.30;49.70;;;;;;6320497;28;20046;-42
2021/12/27 00:19:58;;;;;;;;;;;22.10;50.60;;;;;;6322880;28;20120;-44
2021/12/27 00:22:59;;;;;;;;;;;21.00;49.50;;;;;;6320878;28;19927;-42
2021/12/27 00:26:01;;;;;;;;;;;21.20;49.70;;;;;;6319201;28;19966;-42
2021/12/27 00:29:02;;;;;;;;;;;21.30;49.80;;;;;;6327619;27;19950;-45
2021/12/27 00:32:05;;;;;;;;;;;21.20;49.60;;;;;;6327127;27;20074;-43
2021/12/27 00:35:09;;;;;;;;;;;22.00;50.10;;;;;;6323507;27;19939;-42
2021/12/27 00:38:10;;;;;;;;;;;21.20;49.70;;;;;;6321873;28;20784;-43
2021/12/27 00:41:12;;;;;;;;;;;21.70;50.00;;;;;;6322882;28;19927;-43
2021/12/27 00:44:13;;;;;;;;;;;21.50;49.90;;;;;;6316685;28;19933;-42
2021/12/27 00:47:15;;;;;;;;;;;21.00;49.60;;;;;;6328689;27;19927;-43
2021/12/27 00:50:17;;;;;;;;;;;21.30;49.90;;;;;;6327271;27;19924;-43
2021/12/27 00:53:19;;;;;;;;;;;21.20;49.70;;;;;;6303714;27;19939;-42
2021/12/27 00:56:20;;;;;;;;;;;21.60;49.90;;;;;;6324944;27;20041;-42
2021/12/27 00:59:21;;;;;;;;;;;21.10;49.70;;;;;;6338530;27;20102;-41
2021/12/27 01:02:23;;;;;;;;;;;21.30;49.80;;;;;;6329030;27;20010;-43
2021/12/27 01:05:26;;;;;;;;;;;21.50;49.90;;;;;;6333821;27;19927;-44
2021/12/27 01:08:27;;;;;;;;;;;21.40;49.80;;;;;;6346065;27;19927;-43
2021/12/27 01:11:39;;;;;;;;;;;21.30;49.90;;;;;;6332527;27;20189;-42
2021/12/27 01:14:43;;;;;;;;;;;21.30;50.40;;;;;;6330046;28;20034;-41
2021/12/27 01:17:46;;;;;;;;;;;21.40;49.90;;;;;;6330482;28;20502;-43
2021/12/27 01:20:48;;;;;;;;;;;21.50;49.80;;;;;;6328648;28;20046;-42
2021/12/27 01:23:51;;;;;;;;;;;21.30;49.80;;;;;;6347632;27;20831;-47
2021/12/27 01:26:52;;;;;;;;;;;21.40;49.80;;;;;;6321305;28;19923;-43
2021/12/27 01:29:54;;;;;;;;;;;21.10;49.80;;;;;;6332063;28;19923;-42
2021/12/27 01:32:58;;;;;;;;;;;21.30;49.80;;;;;;6330506;28;20022;-44
2021/12/27 01:36:01;;;;;;;;;;;21.90;50.20;;;;;;6327737;28;19928;-45
2021/12/27 01:39:04;;;;;;;;;;;21.40;49.90;;;;;;6311817;28;20109;-43
2021/12/27 01:42:05;;;;;;;;;;;21.60;50.00;;;;;;6329717;27;19963;-45
2021/12/27 01:45:09;;;;;;;;;;;21.60;50.00;;;;;;6355873;27;19923;-42
2021/12/27 01:48:11;;;;;;;;;;;21.30;49.80;;;;;;6335096;27;19923;-44
2021/12/27 01:51:15;;;;;;;;;;;21.50;49.90;;;;;;6312160;27;19930;-42
2021/12/27 01:54:16;;;;;;;;;;;21.20;49.80;;;;;;6330906;27;20137;-42
2021/12/27 01:57:18;;;;;;;;;;;21.70;50.10;;;;;;6340962;27;19923;-43
2021/12/27 02:00:19;;;;;;;;;;;21.10;49.80;;;;;;6350742;27;21143;-42
2021/12/27 02:03:23;;;;;;;;;;;21.20;49.80;;;;;;6341828;27;19962;-43
2021/12/27 02:06:25;;;;;;;;;;;22.00;50.20;;;;;;6343323;27;19966;-42
2021/12/27 02:09:37;;;;;;;;;;;21.40;49.90;;;;;;6340212;27;19928;-42
2021/12/27 02:12:39;;;;;;;;;;;21.60;50.00;;;;;;6332015;28;20010;-41
2021/12/27 02:15:40;;;;;;;;;;;21.30;49.90;;;;;;6315348;28;19931;-41
2021/12/27 02:18:44;;;;;;;;;;;21.30;49.90;;;;;;6313825;28;19923;-44
2021/12/27 02:21:46;;;;;;;;;;;21.70;50.10;;;;;;6317319;27;19965;-44
2021/12/27 02:24:47;;;;;;;;;;;21.20;49.80;;;;;;6347426;27;19928;-43
2021/12/27 02:27:50;;;;;;;;;;;21.20;49.90;;;;;;6324865;28;20698;-42
2021/12/27 02:30:52;;;;;;;;;;;21.10;49.70;;;;;;6327145;27;19977;-42
2021/12/27 02:33:53;;;;;;;;;;;21.00;49.60;;;;;;6327598;28;20054;-41
2021/12/27 02:36:56;;;;;;;;;;;21.60;50.00;;;;;;6337318;27;20588;-42
2021/12/27 02:39:57;;;;;;;;;;;21.60;50.00;;;;;;6333595;27;20140;-43
2021/12/27 02:43:00;;;;;;;;;;;21.60;50.00;;;;;;6300904;28;19932;-42
2021/12/27 02:46:04;;;;;;;;;;;21.50;49.90;;;;;;6305048;28;20061;-43
2021/12/27 02:49:05;;;;;;;;;;;21.30;49.80;;;;;;6323388;28;19923;-44
2021/12/27 02:52:07;;;;;;;;;;;21.60;50.70;;;;;;6330318;27;19984;-43
2021/12/27 02:55:10;;;;;;;;;;;21.50;49.90;;;;;;6318514;27;20042;-42
2021/12/27 02:58:11;;;;;;;;;;;21.20;49.80;;;;;;6337991;27;20257;-41
2021/12/27 03:01:22;;;;;;;;;;;21.30;49.90;;;;;;6337072;27;20010;-43
2021/12/27 03:04:23;;;;;;;;;;;21.70;50.00;;;;;;6308264;28;19935;-42
2021/12/27 03:07:26;;;;;;;;;;;21.80;50.20;;;;;;6344950;27;19988;-43
2021/12/27 03:10:28;;;;;;;;;;;21.20;49.90;;;;;;6327197;27;20018;-43
2021/12/27 03:13:30;;;;;;;;;;;21.20;49.80;;;;;;6322161;27;20450;-41
2021/12/27 03:16:32;;;;;;;;;;;21.30;49.80;;;;;;6323371;27;20042;-42
2021/12/27 03:19:33;;;;;;;;;;;21.40;49.90;;;;;;6323720;28;19962;-42
2021/12/27 03:22:37;;;;;;;;;;;21.10;49.80;;;;;;6326168;28;20371;-42
2021/12/27 03:25:39;;;;;;;;;;;21.20;49.80;;;;;;6290478;27;19931;-42
2021/12/27 03:28:41;;;;;;;;;;;21.60;50.10;;;;;;6326098;27;20236;-42
2021/12/27 03:31:42;;;;;;;;;;;21.20;49.80;;;;;;6354794;27;19985;-42
2021/12/27 03:34:53;;;;;;;;;;;21.50;50.00;;;;;;6328567;28;19970;-42
2021/12/27 03:37:57;;;;;;;;;;;21.70;50.10;;;;;;6330720;27;19927;-43
2021/12/27 03:40:58;;;;;;;;;;;21.40;50.50;;;;;;6330798;28;20400;-42
2021/12/27 03:43:59;;;;;;;;;;;21.20;49.80;;;;;;6332310;28;19966;-41
2021/12/27 03:47:01;;;;;;;;;;;21.50;50.00;;;;;;6330961;27;19963;-42
2021/12/27 03:50:02;;;;;;;;;;;21.20;49.90;;;;;;6351267;27;19926;-42
2021/12/27 03:53:04;;;;;;;;;;;21.40;49.90;;;;;;6337115;27;19930;-45
2021/12/27 03:56:08;;;;;;;;;;;21.20;49.90;;;;;;6321141;27;20146;-41
2021/12/27 03:59:21;;;;;;;;;;;21.10;49.80;;;;;;6344913;27;20117;-41
2021/12/27 04:02:22;;;;;;;;;;;21.30;49.90;;;;;;6334100;27;20276;-42
2021/12/27 04:05:24;;;;;;;;;;;21.20;49.90;;;;;;6332092;27;19944;-41
2021/12/27 04:08:28;;;;;;;;;;;21.50;49.90;;;;;;6342455;27;20026;-42
2021/12/27 04:11:31;;;;;;;;;;;21.40;49.90;;;;;;6336317;27;20030;-42
2021/12/27 04:14:32;;;;;;;;;;;21.10;49.80;;;;;;6327251;27;19930;-53
2021/12/27 04:17:34;;;;;;;;;;;21.10;49.80;;;;;;6331910;28;19970;-41
2021/12/27 04:20:35;;;;;;;;;;;21.30;50.00;;;;;;6331915;28;20697;-42
2021/12/27 04:23:37;;;;;;;;;;;21.10;49.80;;;;;;6345765;27;19935;-44
2021/12/27 04:26:38;;;;;;;;;;;21.20;49.90;;;;;;6325281;27;20030;-42
2021/12/27 04:29:40;;;;;;;;;;;21.30;50.00;;;;;;6327789;28;19931;-43
2021/12/27 04:32:41;;;;;;;;;;;21.20;49.90;;;;;;6330186;28;21381;-45
2021/12/27 04:35:43;;;;;;;;;;;21.40;49.90;;;;;;6329997;27;19923;-43
2021/12/27 04:38:45;;;;;;;;;;;21.60;50.00;;;;;;6327603;28;20470;-45
2021/12/27 04:41:46;;;;;;;;;;;21.20;49.80;;;;;;6340448;27;20007;-47
2021/12/27 04:44:47;;;;;;;;;;;21.20;49.80;;;;;;6339468;27;20008;-44
2021/12/27 04:47:49;;;;;;;;;;;21.60;50.10;;;;;;6331483;28;20806;-42
2021/12/27 04:50:51;;;;;;;;;;;21.40;49.90;;;;;;6330433;27;19923;-45
2021/12/27 04:53:53;;;;;;;;;;;21.30;49.90;;;;;;6342879;27;20545;-45
2021/12/27 04:56:54;;;;;;;;;;;21.30;49.90;;;;;;6337625;27;20025;-46
2021/12/27 04:59:55;;;;;;;;;;;21.20;49.90;;;;;;6355189;27;20052;-44
2021/12/27 05:02:58;;;;;;;;;;;21.20;49.90;;;;;;6334608;27;19922;-43
2021/12/27 05:06:00;;;;;;;;;;;21.30;49.90;;;;;;6350559;27;19933;-43
2021/12/27 05:09:02;;;;;;;;;;;21.90;50.20;;;;;;6338242;27;20054;-43
2021/12/27 05:12:03;;;;;;;;;;;21.10;49.80;;;;;;6332316;28;19927;-43
2021/12/27 05:15:05;;;;;;;;;;;21.20;49.90;;;;;;6323270;28;20088;-45
2021/12/27 05:18:06;;;;;;;;;;;21.10;49.80;;;;;;6321099;27;19966;-46
2021/12/27 05:21:08;;;;;;;;;;;21.20;50.00;;;;;;6349127;27;19983;-45
2021/12/27 05:24:09;;;;;;;;;;;21.50;50.10;;;;;;6333933;27;19923;-46
2021/12/27 05:27:11;;;;;;;;;;;21.00;49.80;;;;;;6322656;27;19934;-42
2021/12/27 05:30:13;;;;;;;;;;;21.40;50.00;;;;;;6324965;27;19928;-44
2021/12/27 05:33:15;;;;;;;;;;;21.50;50.10;;;;;;6325962;28;20131;-46
2021/12/27 05:36:16;;;;;;;;;;;21.20;49.90;;;;;;6344497;27;20098;-44
2021/12/27 05:39:20;;;;;;;;;;;21.70;50.20;;;;;;6336342;27;19927;-44
2021/12/27 05:42:21;;;;;;;;;;;21.20;49.90;;;;;;6326681;27;19969;-45
2021/12/27 05:45:23;;;;;;;;;;;21.40;50.00;;;;;;6326066;27;19974;-46
2021/12/27 05:48:24;;;;;;;;;;;21.50;50.10;;;;;;6327676;28;19959;-44
2021/12/27 05:51:26;;;;;;;;;;;20.90;49.80;;;;;;6328660;27;19931;-45
2021/12/27 05:54:28;;;;;;;;;;;21.30;50.00;;;;;;6341439;27;20652;-43
2021/12/27 05:57:29;;;;;;;;;;;21.20;49.90;;;;;;6338849;27;20800;-42
2021/12/27 06:00:30;;;;;;;;;;;21.10;49.90;;;;;;6324414;27;20384;-45
2021/12/27 06:03:32;;;;;;;;;;;21.40;50.10;;;;;;6303850;28;19927;-43
2021/12/27 06:06:33;;;;;;;;;;;21.10;50.00;;;;;;6330129;27;20785;-43
2021/12/27 06:09:35;;;;;;;;;;;21.50;50.10;;;;;;6330487;27;19946;-43
2021/12/27 06:12:37;;;;;;;;;;;21.70;50.40;;;;;;6334663;27;19933;-44
2021/12/27 06:15:38;;;;;;;;;;;21.10;50.00;;;;;;6331045;27;20104;-45
2021/12/27 06:18:40;;;;;;;;;;;21.30;50.10;;;;;;6323389;28;19923;-44
2021/12/27 06:21:41;;;;;;;;;;;21.10;50.00;;;;;;6322269;28;20046;-44
2021/12/27 06:24:43;;;;;;;;;;;21.00;49.90;;;;;;6322749;28;20637;-49
2021/12/27 06:27:44;;;;;;;;;;;21.30;50.10;;;;;;6321203;28;20001;-47
2021/12/27 06:30:46;;;;;;;;;;;21.30;50.10;;;;;;6324255;27;20017;-43
2021/12/27 06:33:48;;;;;;;;;;;21.30;50.20;;;;;;6341980;27;20147;-45
2021/12/27 06:36:49;;;;;;;;;;;21.00;49.90;;;;;;6299859;28;20764;-43
2021/12/27 06:39:51;;;;;;;;;;;21.50;50.20;;;;;;6315730;28;19988;-46
2021/12/27 06:42:53;;;;;;;;;;;21.30;50.10;;;;;;6315120;28;19923;-45
2021/12/27 06:45:54;;;;;;;;;;;21.20;50.10;;;;;;6319708;27;20781;-46
2021/12/27 06:48:56;;;;;;;;;;;21.10;49.80;;;;;;6328656;27;19927;-44
2021/12/27 06:51:57;;;;;;;;;;;21.20;50.00;;;;;;6319810;27;20039;-44
2021/12/27 06:54:59;;;;;;;;;;;21.30;49.90;;;;;;6312484;27;20673;-45
2021/12/27 06:58:03;;;;;;;;;;;21.30;49.80;;;;;;6317745;27;19933;-44
2021/12/27 07:01:04;;;;;;;;;;;21.10;49.70;;;;;;6306096;27;19963;-43
2021/12/27 07:04:06;;;;;;;;;;;20.90;49.50;;;;;;6293382;27;19935;-43
2021/12/27 07:07:08;;;;;;;;;;;21.60;49.80;;;;;;6306467;27;19934;-43
2021/12/27 07:10:11;;;;;;;;;;;22.20;50.10;;;;;;6311836;27;20112;-42
2021/12/27 07:13:13;;;;;;;;;;;21.40;49.70;;;;;;6288207;27;19966;-43
2021/12/27 07:16:14;;;;;;;;;;;21.40;49.70;;;;;;6283791;27;20406;-44
2021/12/27 07:19:15;;;;;;;;;;;21.60;49.70;;;;;;6276303;27;19928;-43
2021/12/27 07:22:17;;;;;;;;;;;21.30;49.60;;;;;;6287573;27;19927;-43
2021/12/27 07:25:19;;;;;;;;;;;21.30;49.40;;;;;;6309248;27;20008;-46
2021/12/27 07:28:21;;;;;;;;;;;21.50;49.50;;;;;;6294005;27;19998;-43
2021/12/27 07:31:22;;;;;;;;;;;21.60;49.60;;;;;;6296276;28;20030;-42
2021/12/27 07:34:24;;;;;;;;;;;21.50;49.50;;;;;;6293920;27;19923;-43
2021/12/27 07:37:26;;;;;;;;;;;21.60;49.50;;;;;;6291674;27;19978;-43
2021/12/27 07:40:28;;;;;;;;;;;22.10;49.70;;;;;;6282163;27;19966;-43
2021/12/27 07:43:30;;;;;;;;;;;21.70;49.50;;;;;;6283814;27;21030;-43
2021/12/27 07:46:31;;;;;;;;;;;21.60;49.40;;;;;;6283343;27;19967;-42
2021/12/27 07:49:33;;;;;;;;;;;21.90;49.70;;;;;;6266671;27;20913;-43
2021/12/27 07:52:34;;;;;;;;;;;21.60;49.50;;;;;;6263134;27;20822;-43
2021/12/27 07:55:36;;;;;;;;;;;21.60;49.50;;;;;;6269303;27;21834;-46
2021/12/27 07:58:38;;;;;;;;;;;21.60;49.40;;;;;;6267058;27;19934;-44
2021/12/27 08:01:39;;;;;;;;;;;21.60;49.50;;;;;;6258925;27;20045;-43
2021/12/27 08:04:41;;;;;;;;;;;21.90;49.50;;;;;;6265531;27;21018;-43
2021/12/27 08:07:42;;;;;;;;;;;22.00;49.40;;;;;;6261457;27;19934;-43
2021/12/27 08:10:45;;;;;;;;;;;21.70;49.40;;;;;;6239044;27;20898;-43
2021/12/27 08:13:46;;;;;;;;;;;21.70;49.20;;;;;;6262206;27;20004;-43
2021/12/27 08:16:48;;;;;;;;;;;22.00;49.30;;;;;;6262869;27;19930;-42
2021/12/27 08:19:49;;;;;;;;;;;21.90;49.30;;;;;;6274391;27;21533;-42
2021/12/27 08:22:51;;;;;;;;;;;21.90;49.20;;;;;;6274760;27;20003;-43
2021/12/27 08:25:53;;;;;;;;;;;21.80;49.10;;;;;;6254829;27;19927;-44
2021/12/27 08:28:55;;;;;;;;;;;22.10;49.30;;;;;;6267796;27;19931;-42
2021/12/27 08:31:56;;;;;;;;;;;22.00;49.20;;;;;;6267123;27;19933;-42
2021/12/27 08:34:57;;;;;;;;;;;21.80;49.10;;;;;;6263116;27;19934;-42
2021/12/27 08:37:59;;;;;;;;;;;21.90;49.20;;;;;;6266374;27;19934;-43
2021/12/27 08:41:01;;;;;;;;;;;21.70;49.00;;;;;;6264887;27;19959;-42
2021/12/27 08:44:05;;;;;;;;;;;22.20;49.20;;;;;;6245204;27;19935;-44
2021/12/27 08:47:06;;;;;;;;;;;22.30;49.30;;;;;;6244985;27;20969;-43
2021/12/27 08:50:09;;;;;;;;;;;22.00;49.10;;;;;;6261460;27;19934;-43
2021/12/27 08:53:12;;;;;;;;;;;22.10;48.90;;;;;;6264375;27;19944;-45
2021/12/27 08:56:14;;;;;;;;;;;22.20;49.10;;;;;;6262619;27;22984;-43
2021/12/27 08:59:15;;;;;;;;;;;22.30;49.10;;;;;;6251736;27;19926;-43
2021/12/27 09:02:17;;;;;;;;;;;22.40;49.30;;;;;;6263349;27;20625;-43
2021/12/27 09:05:18;;;;;;;;;;;21.90;49.00;;;;;;6257653;27;19927;-43
2021/12/27 09:08:20;;;;;;;;;;;22.00;49.00;;;;;;6259328;27;20756;-43
2021/12/27 09:11:22;;;;;;;;;;;22.10;49.00;;;;;;6264058;27;20976;-43
2021/12/27 09:14:23;;;;;;;;;;;22.60;49.20;;;;;;6263896;27;21989;-47
2021/12/27 09:17:24;;;;;;;;;;;22.20;49.00;;;;;;6255612;27;19927;-45
2021/12/27 09:20:27;;;;;;;;;;;22.20;49.00;;;;;;6266858;27;20042;-44
2021/12/27 09:23:29;;;;;;;;;;;22.60;49.20;;;;;;6251819;27;19981;-43
2021/12/27 09:26:31;;;;;;;;;;;22.00;48.90;;;;;;6267662;27;19927;-42
2021/12/27 09:29:32;;;;;;;;;;;22.20;49.00;;;;;;6266787;27;20041;-43
2021/12/27 09:32:34;;;;;;;;;;;22.40;49.60;;;;;;6253316;27;20042;-42
2021/12/27 09:35:35;;;;;;;;;;;22.20;48.90;;;;;;6272890;27;19927;-46
2021/12/27 09:38:37;;;;;;;;;;;22.50;49.00;;;;;;6270719;27;19928;-42
2021/12/27 09:41:39;;;;;;;;;;;22.50;49.00;;;;;;6268617;27;19927;-45
2021/12/27 09:44:40;;;;;;;;;;;22.30;48.90;;;;;;6276541;27;19934;-43
2021/12/27 09:47:44;;;;;;;;;;;22.20;48.80;;;;;;6267102;27;22343;-45
2021/12/27 09:50:54;;;;;;;;;;;22.40;49.00;;;;;;6262074;27;20887;-42
2021/12/27 09:53:56;;;;;;;;;;;22.20;48.80;;;;;;6259040;27;21641;-42
2021/12/27 09:56:58;;;;;;;;;;;22.40;48.90;;;;;;6242190;27;20115;-43
2021/12/27 10:00:00;;;;;;;;;;;22.60;49.00;;;;;;6265319;27;19935;-43
2021/12/27 10:03:01;;;;;;;;;;;22.60;49.70;;;;;;6266066;27;19969;-45
2021/12/27 10:06:08;;;;;;;;;;;22.40;48.90;;;;;;6263137;27;21629;-43
2021/12/27 10:09:10;;;;;;;;;;;22.40;48.80;;;;;;6277802;27;19931;-45
2021/12/27 10:12:19;;;;;;;;;;;22.20;48.80;;;;;;6262821;27;20721;-42
2021/12/27 10:15:30;;;;;;;;;;;22.50;48.90;;;;;;6260345;27;20045;-42
2021/12/27 10:18:32;;;;;;;;;;;22.50;49.00;;;;;;6271290;27;19975;-42
2021/12/27 10:21:34;;;;;;;;;;;22.60;48.90;;;;;;6264605;27;19927;-42
2021/12/27 10:24:35;;;;;;;;;;;22.50;48.90;;;;;;6268867;27;19927;-42
2021/12/27 10:27:37;;;;;;;;;;;22.70;49.00;;;;;;6255311;27;20034;-42
2021/12/27 10:30:41;;;;;;;;;;;22.50;48.90;;;;;;6263127;27;19927;-43
2021/12/27 10:33:42;;;;;;;;;;;22.30;48.80;;;;;;6250434;27;19931;-42
2021/12/27 10:36:56;;;;;;;;;;;22.40;48.90;;;;;;6260479;27;19927;-43
2021/12/27 10:39:58;;;;;;;;;;;22.50;48.90;;;;;;6251851;27;20868;-42
2021/12/27 10:43:00;;;;;;;;;;;22.30;48.80;;;;;;6233846;27;19963;-43
2021/12/27 10:46:02;;;;;;;;;;;22.70;49.00;;;;;;6219511;27;21287;-42
2021/12/27 10:49:03;;;;;;;;;;;22.80;49.00;;;;;;6211266;27;19927;-42
2021/12/27 10:52:05;;;;;;;;;;;22.30;48.90;;;;;;6208877;27;20823;-42
2021/12/27 10:55:07;;;;;;;;;;;22.60;49.60;;;;;;6215691;27;19970;-42
2021/12/27 10:58:11;;;;;;;;;;;22.50;48.90;;;;;;6214667;27;20753;-44
2021/12/27 11:01:17;;;;;;;;;;;22.30;48.70;;;;;;6249182;27;20088;-43
2021/12/27 11:04:19;;;;;;;;;;;22.60;48.90;;;;;;6253453;27;19933;-42
2021/12/27 11:07:21;;;;;;;;;;;23.10;49.20;;;;;;6264546;27;19934;-43
2021/12/27 11:10:22;;;;;;;;;;;22.40;48.80;;;;;;6261010;27;19999;-43
2021/12/27 11:13:25;;;;;;;;;;;22.70;49.00;;;;;;6275383;27;19928;-44
2021/12/27 11:16:28;;;;;;;;;;;22.90;49.00;;;;;;6233243;27;19936;-44
2021/12/27 11:19:29;;;;;;;;;;;22.40;48.90;;;;;;6249189;27;20817;-44
2021/12/27 11:22:31;;;;;;;;;;;22.60;49.00;;;;;;6269388;27;20011;-42
2021/12/27 11:25:33;;;;;;;;;;;22.30;48.70;;;;;;6277618;27;19923;-43
2021/12/27 11:28:36;;;;;;;;;;;22.30;48.70;;;;;;6272677;27;20782;-42
2021/12/27 11:31:38;;;;;;;;;;;22.40;48.80;;;;;;6255769;27;20712;-43
2021/12/27 11:34:52;;;;;;;;;;;22.70;49.00;;;;;;6276386;27;19952;-43
2021/12/27 11:37:56;;;;;;;;;;;22.50;48.90;;;;;;6267058;27;19934;-43
2021/12/27 11:40:58;;;;;;;;;;;22.90;49.10;;;;;;6280933;27;19934;-42
2021/12/27 11:44:01;;;;;;;;;;;22.40;48.70;;;;;;6277259;27;19927;-42
2021/12/27 11:47:04;;;;;;;;;;;22.60;48.90;;;;;;6258904;27;19924;-44
2021/12/27 11:50:11;;;;;;;;;;;22.70;48.90;;;;;;6251365;27;19996;-42
2021/12/27 11:53:24;;;;;;;;;;;22.80;49.00;;;;;;6280547;27;19927;-42
2021/12/27 11:56:41;;;;;;;;;;;22.40;49.10;;;;;;6268178;27;20866;-43
2021/12/27 11:59:43;;;;;;;;;;;22.50;48.80;;;;;;6269860;27;20864;-43
2021/12/27 12:02:45;;;;;;;;;;;22.60;48.80;;;;;;6280809;27;19934;-42
2021/12/27 12:05:48;;;;;;;;;;;22.60;48.80;;;;;;6270014;27;20983;-43
2021/12/27 12:08:50;;;;;;;;;;;22.80;48.90;;;;;;6261854;27;20917;-45
2021/12/27 12:11:59;;;;;;;;;;;22.80;48.90;;;;;;6279106;27;19928;-42
2021/12/27 12:15:02;;;;;;;;;;;22.70;48.90;;;;;;6278641;27;19927;-43
2021/12/27 12:18:13;;;;;;;;;;;22.50;48.70;;;;;;6278802;27;19963;-45
2021/12/27 12:21:25;;;;;;;;;;;22.80;49.50;;;;;;6280443;27;19974;-42
2021/12/27 12:24:27;;;;;;;;;;;22.80;48.90;;;;;;6276480;27;20850;-44
2021/12/27 12:27:28;;;;;;;;;;;23.00;49.00;;;;;;6276480;27;19991;-45
2021/12/27 12:30:32;;;;;;;;;;;22.60;48.80;;;;;;6276838;27;19928;-44
2021/12/27 12:33:34;;;;;;;;;;;22.70;48.80;;;;;;6273137;27;19928;-43
2021/12/27 12:36:43;;;;;;;;;;;22.60;48.70;;;;;;6266436;27;21548;-43
2021/12/27 12:39:46;;;;;;;;;;;22.70;48.80;;;;;;6250522;27;19978;-42
2021/12/27 12:42:48;;;;;;;;;;;22.70;48.80;;;;;;6246455;27;20029;-42
2021/12/27 12:45:50;;;;;;;;;;;22.60;49.30;;;;;;6270905;27;19970;-43
2021/12/27 12:49:02;;;;;;;;;;;22.60;48.70;;;;;;6279520;27;19934;-43
2021/12/27 12:52:05;;;;;;;;;;;22.90;48.90;;;;;;6272178;27;20045;-42
2021/12/27 12:55:06;;;;;;;;;;;22.90;48.90;;;;;;6239694;27;20135;-44
2021/12/27 12:58:08;;;;;;;;;;;22.70;48.80;;;;;;6251707;27;19927;-44
2021/12/27 13:01:10;;;;;;;;;;;22.90;48.80;;;;;;6261085;27;21357;-42
2021/12/27 13:04:11;;;;;;;;;;;22.70;48.70;;;;;;6257645;27;19963;-43
2021/12/27 13:07:13;;;;;;;;;;;23.00;49.30;;;;;;6266385;27;19988;-42
2021/12/27 13:10:18;;;;;;;;;;;22.60;48.60;;;;;;6233979;27;23583;-42
2021/12/27 13:13:20;;;;;;;;;;;22.90;48.80;;;;;;6267737;27;22386;-43
2021/12/27 13:16:25;;;;;;;;;;;23.00;48.80;;;;;;6267452;27;19933;-43
2021/12/27 13:19:27;;;;;;;;;;;22.80;48.80;;;;;;6269016;27;19967;-43
2021/12/27 13:22:43;;;;;;;;;;;22.70;48.70;;;;;;6266984;27;19927;-42
2021/12/27 13:25:45;;;;;;;;;;;22.60;48.60;;;;;;6270098;27;20041;-42
2021/12/27 13:28:47;;;;;;;;;;;22.60;48.90;;;;;;6273622;27;19928;-42
2021/12/27 13:31:49;;;;;;;;;;;23.30;49.00;;;;;;6273310;27;20075;-42
2021/12/27 13:34:50;;;;;;;;;;;23.00;48.80;;;;;;6274031;27;20038;-41
2021/12/27 13:37:53;;;;;;;;;;;22.80;48.70;;;;;;6262539;27;19934;-42
2021/12/27 13:40:55;;;;;;;;;;;22.70;48.70;;;;;;6275215;27;19931;-42
2021/12/27 13:43:57;;;;;;;;;;;22.70;48.60;;;;;;6257743;27;19927;-43
2021/12/27 13:47:01;;;;;;;;;;;22.80;48.80;;;;;;6274924;27;20128;-42
2021/12/27 13:50:04;;;;;;;;;;;22.90;48.80;;;;;;6266742;27;19927;-42
2021/12/27 13:53:13;;;;;;;;;;;22.70;48.70;;;;;;6267424;27;19927;-42
2021/12/27 13:56:15;;;;;;;;;;;22.80;48.70;;;;;;6250599;27;21047;-42
2021/12/27 13:59:17;;;;;;;;;;;23.00;48.90;;;;;;6272658;27;19934;-42
2021/12/27 14:02:20;;;;;;;;;;;22.90;48.80;;;;;;6247784;27;19931;-44
2021/12/27 14:05:25;;;;;;;;;;;22.80;48.80;;;;;;6265922;27;19931;-43
2021/12/27 14:08:29;;;;;;;;;;;22.80;48.80;;;;;;6277245;27;19983;-42
2021/12/27 14:11:31;;;;;;;;;;;23.00;48.90;;;;;;6277524;27;20946;-45
2021/12/27 14:14:34;;;;;;;;;;;22.80;48.80;;;;;;6255079;27;20883;-44
2021/12/27 14:17:42;;;;;;;;;;;22.80;48.90;;;;;;6267601;27;19995;-44
2021/12/27 14:21:00;;;;;;;;;;;22.70;49.00;;;;;;6269770;27;20880;-43
2021/12/27 14:24:03;;;;;;;;;;;22.70;48.80;;;;;;6276619;27;19934;-45
2021/12/27 14:27:05;;;;;;;;;;;22.60;48.90;;;;;;6269040;27;19977;-44
2021/12/27 14:30:09;;;;;;;;;;;22.80;49.00;;;;;;6270712;27;19927;-42
2021/12/27 14:33:13;;;;;;;;;;;22.70;49.00;;;;;;6263066;27;19923;-43
2021/12/27 14:36:14;;;;;;;;;;;22.60;49.00;;;;;;6261167;27;19932;-43
2021/12/27 14:39:15;;;;;;;;;;;22.60;49.00;;;;;;6261723;27;19967;-43
2021/12/27 14:42:19;;;;;;;;;;;22.70;49.10;;;;;;6265303;27;19927;-43
2021/12/27 14:45:21;;;;;;;;;;;22.80;49.10;;;;;;6270252;27;19927;-47
2021/12/27 14:48:25;;;;;;;;;;;22.60;49.00;;;;;;6275589;27;20059;-43
2021/12/27 14:51:26;;;;;;;;;;;22.10;48.80;;;;;;6264027;27;20037;-44
2021/12/27 14:54:28;;;;;;;;;;;22.60;49.10;;;;;;6273352;27;20842;-42
2021/12/27 14:57:29;;;;;;;;;;;22.80;49.20;;;;;;6271518;27;19934;-43
2021/12/27 15:00:31;;;;;;;;;;;22.50;49.10;;;;;;6275665;27;19931;-42
2021/12/27 15:03:33;;;;;;;;;;;22.50;49.00;;;;;;6241226;27;22407;-42
2021/12/27 15:06:35;;;;;;;;;;;22.60;49.10;;;;;;6272952;27;20031;-43
2021/12/27 15:09:37;;;;;;;;;;;22.80;49.20;;;;;;6272168;27;20975;-43
2021/12/27 15:12:39;;;;;;;;;;;22.50;49.00;;;;;;6267651;27;19927;-43
2021/12/27 15:15:41;;;;;;;;;;;22.70;49.10;;;;;;6257226;27;19927;-42
2021/12/27 15:18:44;;;;;;;;;;;22.80;49.20;;;;;;6258839;27;20846;-45
2021/12/27 15:21:45;;;;;;;;;;;22.80;49.20;;;;;;6253836;27;19927;-42
2021/12/27 15:24:46;;;;;;;;;;;22.70;49.20;;;;;;6257044;27;19931;-42
2021/12/27 15:27:48;;;;;;;;;;;22.80;49.20;;;;;;6244348;27;19934;-43
2021/12/27 15:30:54;;;;;;;;;;;22.80;49.20;;;;;;6276431;27;19940;-42
2021/12/27 15:33:57;;;;;;;;;;;22.60;49.10;;;;;;6275499;27;19927;-42
2021/12/27 15:36:58;;;;;;;;;;;22.60;49.10;;;;;;6257439;27;20813;-43
2021/12/27 15:39:59;;;;;;;;;;;22.70;49.20;;;;;;6269361;27;20988;-43
2021/12/27 15:43:01;;;;;;;;;;;23.10;49.50;;;;;;6267386;27;20203;-42
2021/12/27 15:46:03;;;;;;;;;;;22.40;49.10;;;;;;6270903;27;19928;-43
2021/12/27 15:49:05;;;;;;;;;;;22.70;49.20;;;;;;6275631;27;20008;-45
2021/12/27 15:52:06;;;;;;;;;;;22.40;49.10;;;;;;6273313;27;21614;-43
2021/12/27 15:55:09;;;;;;;;;;;22.60;49.20;;;;;;6276352;27;19928;-43
2021/12/27 15:58:11;;;;;;;;;;;22.40;49.10;;;;;;6267442;27;20484;-42
2021/12/27 16:01:12;;;;;;;;;;;22.90;49.40;;;;;;6272305;27;19928;-43
2021/12/27 16:04:20;;;;;;;;;;;22.50;49.20;;;;;;6277709;27;20955;-44
2021/12/27 16:07:21;;;;;;;;;;;22.50;49.20;;;;;;6275360;27;19927;-43
2021/12/27 16:10:23;;;;;;;;;;;22.50;49.30;;;;;;6269887;27;19926;-42
2021/12/27 16:13:25;;;;;;;;;;;22.80;49.40;;;;;;6269381;27;19927;-42
2021/12/27 16:16:27;;;;;;;;;;;22.40;49.20;;;;;;6261401;27;19934;-43
2021/12/27 16:19:30;;;;;;;;;;;22.80;49.40;;;;;;6264517;27;19927;-43
2021/12/27 16:22:31;;;;;;;;;;;22.50;49.30;;;;;;6274772;27;21073;-42
2021/12/27 16:25:32;;;;;;;;;;;22.40;49.30;;;;;;6274436;27;20108;-49
2021/12/27 16:28:34;;;;;;;;;;;22.20;49.20;;;;;;6284990;27;21018;-43
2021/12/27 16:31:36;;;;;;;;;;;22.30;49.20;;;;;;6272064;27;20807;-43
2021/12/27 16:34:38;;;;;;;;;;;22.70;49.40;;;;;;6280350;27;19927;-43
2021/12/27 16:37:39;;;;;;;;;;;22.40;49.30;;;;;;6282785;27;19935;-42
2021/12/27 16:40:41;;;;;;;;;;;22.40;49.20;;;;;;6280541;27;19953;-43
2021/12/27 16:43:42;;;;;;;;;;;22.40;49.20;;;;;;6283791;27;20042;-44
2021/12/27 16:46:44;;;;;;;;;;;22.40;49.20;;;;;;6282816;27;20738;-42
2021/12/27 16:49:46;;;;;;;;;;;22.60;49.30;;;;;;6282463;27;20001;-43
2021/12/27 16:52:48;;;;;;;;;;;22.40;49.30;;;;;;6275946;27;19931;-43
2021/12/27 16:55:49;;;;;;;;;;;22.70;49.50;;;;;;6283721;27;20470;-45
2021/12/27 16:58:50;;;;;;;;;;;22.30;49.20;;;;;;6285000;27;19995;-43
2021/12/27 17:01:52;;;;;;;;;;;22.70;49.50;;;;;;6290310;27;19927;-42
2021/12/27 17:04:57;;;;;;;;;;;22.80;49.60;;;;;;6274296;27;20004;-43
2021/12/27 17:07:58;;;;;;;;;;;22.40;49.30;;;;;;6284879;27;19977;-43
2021/12/27 17:11:01;;;;;;;;;;;22.40;49.40;;;;;;6290151;27;20906;-44
2021/12/27 17:14:02;;;;;;;;;;;22.50;49.30;;;;;;6273941;27;19927;-45
2021/12/27 17:17:04;;;;;;;;;;;22.80;49.50;;;;;;6296854;27;20007;-43
2021/12/27 17:20:06;;;;;;;;;;;22.30;49.20;;;;;;6299936;27;20701;-43
2021/12/27 17:23:08;;;;;;;;;;;22.20;49.20;;;;;;6296325;27;21473;-43
2021/12/27 17:26:11;;;;;;;;;;;22.30;49.30;;;;;;6294878;27;19959;-43
2021/12/27 17:29:13;;;;;;;;;;;22.40;49.30;;;;;;6278285;27;20066;-43
2021/12/27 17:32:16;;;;;;;;;;;22.30;49.30;;;;;;6261591;27;19928;-42
2021/12/27 17:35:18;;;;;;;;;;;22.60;49.50;;;;;;6283426;27;20170;-43
2021/12/27 17:38:19;;;;;;;;;;;22.50;49.40;;;;;;6285292;27;19931;-43
2021/12/27 17:41:20;;;;;;;;;;;22.40;49.40;;;;;;6282302;27;20761;-43